Aérodrome :
LOGIN :

S'inscrire | Disclaimer

   EN    FR    IT 

 










Légende :    VFR   VFR Marginal   IFR   IFR Intensif   IFR Très Intensif
Visi : 
Plafond : 
>= 8 km
>= 3000ft
5 à 8 km
1000 à 3000 ft
1500m à 5 km
500 à 1000 ft
800 à 1500m
200 à 500 ft
< 800m
< 200 ft
Symboles :   Orages  Brouillard  Fortes neiges  Fortes précipitations  Vent > 20 kt
SIGMETs :   Divers  Orages  Givrage  Turbulence  Onde Orograph.  Cendres Volcan.







- Altitude de l'aérodrome : 138 ft
- Code IATA : RLG


ETNL - Rostock Laage

DERNIER METAR :
  • 221358Z 14008KT 6000 OVC004 M01/M02 Q1009 YLO YLO BECMG GRN

METARs EXPIRÉS :
  • 221320Z 16005KT 6000 OVC005 M01/M02 Q1009 YLO YLO BECMG GRN
  • 221257Z 16006KT 6000 OVC005 M01/M02 Q1009 YLO YLO BECMG GRN
  • 221220Z 17007KT 6000 BKN006 M01/M02 Q1010 YLO YLO BECMG GRN
  • 221155Z 15004KT 4500 BR FEW005 BKN008 M01/M02 Q1010 GRN YLO BECMG GRN
  • 221140Z 14005KT 4200 BR FEW005 BKN010 M01/M02 Q1011 GRN YLO BECMG GRN
  • 221120Z 15004KT 4200 BR BKN005 BKN011 M01/M02 Q1011 YLO YLO BECMG GRN
  • 221102Z 15004KT 3000 BR BKN002 BKN012 M02/M02 Q1011 AMB AMB BECMG YLO

TAF TAF ETNL
Valide du 22 à 12h jusqu'au 22 à 21h UTC


221120Z 2212/2221 18005KT 3000 BR BKN004
BECMG 2212/2214 16008KT 5000 BR BKN010
BECMG 2214/2216 13008KT 8000 NSW SCT015 SCT200 BY ETGL
Pas de NOTAMs connus pour ce terrain.



MET'MAP, la Météo Aéronautique d'un coup d'oeil ! - Copyright ORBIFLY Décembre 2007 - Disclaimer

ORBIFLY MET'MAP TEAM :

Programmation & Développement : Alexandra Zaïnal
Conception & Développement : Baudouin d'Aumeries
Co-Programmation & Développement : Marc-Olivier Méhu
Soutien technique & logistique : Manuel Goepfert

Contact : metmap@orbifly.com




SOURCES & CREDITS :

   NOAA